createdAt,value
2019-03-19T00:01:14.227Z,100.00
2019-03-19T00:03:42.667Z,100.00
2019-03-19T00:06:11.158Z,100.00
2019-03-19T00:08:39.592Z,100.00
2019-03-19T00:11:08.046Z,100.00
2019-03-19T00:13:36.498Z,100.00
2019-03-19T00:16:04.943Z,100.00
2019-03-19T00:18:33.368Z,100.00
2019-03-19T00:21:01.819Z,100.00
2019-03-19T00:23:30.277Z,100.00
2019-03-19T00:25:58.742Z,100.00
2019-03-19T00:28:27.305Z,100.00
2019-03-19T00:30:55.725Z,100.00
2019-03-19T00:33:24.223Z,100.00
2019-03-19T00:35:52.660Z,100.00
2019-03-19T00:38:21.093Z,100.00
2019-03-19T00:40:49.541Z,100.00
2019-03-19T00:43:17.990Z,100.00
2019-03-19T00:45:46.421Z,100.00
2019-03-19T00:48:14.872Z,100.00
2019-03-19T00:50:43.427Z,100.00
2019-03-19T00:53:11.863Z,100.00
2019-03-19T00:55:41.154Z,100.00
2019-03-19T00:58:09.927Z,100.00
2019-03-19T01:00:38.384Z,100.00
2019-03-19T01:03:06.845Z,100.00
2019-03-19T01:05:35.287Z,100.00
2019-03-19T01:08:03.808Z,100.00
2019-03-19T01:10:32.333Z,100.00
2019-03-19T01:13:00.784Z,100.00
2019-03-19T01:15:29.216Z,100.00
2019-03-19T01:17:57.671Z,100.00
2019-03-19T01:20:26.157Z,100.00
2019-03-19T01:22:54.608Z,100.00
2019-03-19T01:25:23.159Z,100.00
2019-03-19T01:27:51.635Z,100.00
2019-03-19T01:30:20.072Z,100.00
2019-03-19T01:32:48.511Z,100.00
2019-03-19T01:35:16.978Z,100.00
2019-03-19T01:37:45.399Z,100.00
2019-03-19T01:40:14.281Z,100.00
2019-03-19T01:42:42.812Z,100.00
2019-03-19T01:45:12.382Z,100.00
2019-03-19T01:47:40.869Z,100.00
2019-03-19T01:50:15.983Z,100.00
2019-03-19T01:52:44.493Z,100.00
2019-03-19T01:55:16.285Z,100.00
2019-03-19T01:57:44.732Z,100.00
2019-03-19T02:00:18.758Z,100.00
2019-03-19T02:02:47.231Z,100.00
2019-03-19T02:05:15.748Z,100.00
2019-03-19T02:07:44.225Z,100.00
2019-03-19T02:10:16.534Z,100.00
2019-03-19T02:12:44.964Z,100.00
2019-03-19T02:15:18.171Z,100.00
2019-03-19T02:17:46.765Z,100.00
2019-03-19T02:20:16.468Z,100.00
2019-03-19T02:22:45.013Z,100.00
2019-03-19T02:25:13.444Z,100.00
2019-03-19T02:27:41.940Z,100.00
2019-03-19T02:30:14.895Z,100.00
2019-03-19T02:32:43.468Z,100.00
2019-03-19T02:35:12.164Z,100.00
2019-03-19T02:37:40.611Z,100.00
2019-03-19T02:40:11.791Z,100.00
2019-03-19T02:42:40.255Z,100.00
2019-03-19T02:45:15.904Z,100.00
2019-03-19T02:47:44.391Z,100.00
2019-03-19T02:50:17.289Z,100.00
2019-03-19T02:52:45.701Z,100.00
2019-03-19T02:55:14.590Z,100.00
2019-03-19T02:57:43.119Z,100.00
2019-03-19T03:00:20.587Z,100.00
2019-03-19T03:02:49.058Z,100.00
2019-03-19T03:05:23.296Z,100.00
2019-03-19T03:07:51.743Z,100.00
2019-03-19T03:10:20.211Z,100.00
2019-03-19T03:12:48.652Z,100.00
2019-03-19T03:15:17.224Z,100.00
2019-03-19T03:17:45.687Z,100.00
2019-03-19T03:20:17.638Z,100.00
2019-03-19T03:22:46.196Z,100.00
2019-03-19T03:25:17.036Z,100.00
2019-03-19T03:27:45.507Z,100.00
2019-03-19T03:30:19.094Z,100.00
2019-03-19T03:32:47.518Z,100.00
2019-03-19T03:35:16.137Z,100.00
2019-03-19T03:37:44.561Z,100.00
2019-03-19T03:40:18.244Z,100.00
2019-03-19T03:42:46.702Z,100.00
2019-03-19T03:45:16.686Z,100.00
2019-03-19T03:47:45.274Z,100.00
2019-03-19T03:50:15.246Z,100.00
2019-03-19T03:52:43.778Z,100.00
2019-03-19T03:55:15.636Z,100.00
2019-03-19T03:57:44.062Z,100.00
2019-03-19T04:00:16.782Z,100.00
2019-03-19T04:02:45.232Z,100.00
2019-03-19T04:05:13.972Z,100.00
2019-03-19T04:07:42.444Z,100.00
2019-03-19T04:10:16.104Z,100.00
2019-03-19T04:12:47.508Z,100.00
2019-03-19T04:15:19.249Z,100.00
2019-03-19T04:17:47.724Z,100.00
2019-03-19T04:20:19.261Z,100.00
2019-03-19T04:22:47.760Z,100.00
2019-03-19T04:25:16.303Z,100.00
2019-03-19T04:27:44.840Z,100.00
2019-03-19T04:30:17.947Z,100.00
2019-03-19T04:32:46.476Z,100.00
2019-03-19T04:35:14.926Z,100.00
2019-03-19T04:37:43.515Z,100.00
2019-03-19T04:40:15.760Z,100.00
2019-03-19T04:42:44.656Z,100.00
2019-03-19T04:45:16.817Z,100.00
2019-03-19T04:47:45.404Z,100.00
2019-03-19T04:50:15.926Z,100.00
2019-03-19T04:52:44.527Z,100.00
2019-03-19T04:55:14.608Z,100.00
2019-03-19T04:57:43.059Z,100.00
2019-03-19T05:00:16.839Z,100.00
2019-03-19T05:02:45.304Z,100.00
2019-03-19T05:05:14.581Z,100.00
2019-03-19T05:07:43.086Z,100.00
2019-03-19T05:10:18.478Z,100.00
2019-03-19T05:12:46.999Z,100.00
2019-03-19T05:15:15.605Z,100.00
2019-03-19T05:17:44.050Z,100.00
2019-03-19T05:20:17.379Z,100.00
2019-03-19T05:22:45.918Z,100.00
2019-03-19T05:25:14.333Z,100.00
2019-03-19T05:27:42.841Z,100.00
2019-03-19T05:30:14.046Z,100.00
2019-03-19T05:32:43.163Z,100.00
2019-03-19T05:35:11.731Z,100.00
2019-03-19T05:37:40.268Z,100.00
2019-03-19T05:40:14.256Z,100.00
2019-03-19T05:42:43.511Z,100.00
2019-03-19T05:45:15.907Z,100.00
2019-03-19T05:47:44.513Z,100.00
2019-03-19T05:50:14.902Z,100.00
2019-03-19T05:52:43.328Z,100.00
2019-03-19T05:55:11.912Z,100.00
2019-03-19T05:57:48.969Z,100.00
2019-03-19T06:00:13.537Z,100.00
2019-03-19T06:02:42.002Z,100.00
2019-03-19T06:05:12.266Z,100.00
2019-03-19T06:07:40.708Z,100.00
2019-03-19T06:10:11.397Z,100.00
2019-03-19T06:12:39.852Z,100.00
2019-03-19T06:15:10.695Z,100.00
2019-03-19T06:17:39.272Z,100.00
2019-03-19T06:20:15.999Z,100.00
2019-03-19T06:22:45.510Z,100.00
2019-03-19T06:25:14.463Z,100.00
2019-03-19T06:27:43.133Z,100.00
2019-03-19T06:30:16.627Z,100.00
2019-03-19T06:32:45.050Z,100.00
2019-03-19T06:35:15.112Z,100.00
2019-03-19T06:37:46.812Z,100.00
2019-03-19T06:40:17.485Z,100.00
2019-03-19T06:42:47.281Z,100.00
2019-03-19T06:45:21.763Z,100.00
2019-03-19T06:47:50.249Z,100.00
2019-03-19T06:50:20.242Z,100.00
2019-03-19T06:52:48.743Z,100.00
2019-03-19T06:55:18.489Z,100.00
2019-03-19T06:57:46.941Z,100.00
2019-03-19T07:00:24.476Z,100.00
2019-03-19T07:02:52.908Z,100.00
2019-03-19T07:05:22.203Z,100.00
2019-03-19T07:07:50.672Z,100.00
2019-03-19T07:10:20.463Z,100.00
2019-03-19T07:12:49.042Z,100.00
2019-03-19T07:15:19.077Z,100.00
2019-03-19T07:17:47.930Z,100.00
2019-03-19T07:20:21.347Z,100.00
2019-03-19T07:22:49.932Z,100.00
2019-03-19T07:25:18.449Z,100.00
2019-03-19T07:27:46.967Z,100.00
2019-03-19T07:30:18.398Z,100.00
2019-03-19T07:32:47.211Z,100.00
2019-03-19T07:35:15.807Z,100.00
2019-03-19T07:37:44.343Z,100.00
2019-03-19T07:40:14.975Z,100.00
2019-03-19T07:42:43.592Z,100.00
2019-03-19T07:45:20.876Z,100.00
2019-03-19T07:47:49.328Z,100.00
2019-03-19T07:50:19.989Z,100.00
2019-03-19T07:52:48.525Z,99.78
2019-03-19T07:55:16.951Z,99.08
2019-03-19T07:57:45.557Z,96.53
2019-03-19T08:00:21.758Z,96.94
2019-03-19T08:02:51.095Z,97.40
2019-03-19T08:05:19.602Z,97.25
2019-03-19T08:07:48.398Z,98.25
2019-03-19T08:10:19.051Z,97.83
2019-03-19T08:12:47.558Z,97.93
2019-03-19T08:15:20.723Z,97.77
2019-03-19T08:17:49.889Z,97.20
2019-03-19T08:20:18.901Z,97.42
2019-03-19T08:22:47.518Z,98.14
2019-03-19T08:25:17.589Z,98.49
2019-03-19T08:27:49.218Z,98.59
2019-03-19T08:30:24.271Z,97.12
2019-03-19T08:32:53.273Z,94.11
2019-03-19T08:35:21.751Z,92.07
2019-03-19T08:37:50.185Z,91.05
2019-03-19T08:40:21.889Z,89.42
2019-03-19T08:42:51.525Z,89.12
2019-03-19T08:45:26.996Z,87.92
2019-03-19T08:47:55.551Z,86.95
2019-03-19T08:50:24.653Z,88.17
2019-03-19T08:52:55.210Z,89.04
2019-03-19T08:55:23.323Z,90.33
2019-03-19T08:57:52.394Z,91.33
2019-03-19T09:00:26.099Z,91.35
2019-03-19T09:02:56.227Z,90.95
2019-03-19T09:05:24.792Z,90.53
2019-03-19T09:07:53.528Z,90.57
2019-03-19T09:10:22.221Z,91.15
2019-03-19T09:12:50.703Z,90.96
2019-03-19T09:15:25.114Z,90.06
2019-03-19T09:17:54.007Z,90.76
2019-03-19T09:20:22.466Z,89.85
2019-03-19T09:22:52.775Z,88.60
2019-03-19T09:25:21.207Z,87.74
2019-03-19T09:27:49.672Z,89.42
2019-03-19T09:30:19.185Z,88.19
2019-03-19T09:32:47.573Z,88.06
2019-03-19T09:35:34.764Z,85.31
2019-03-19T09:38:01.817Z,84.42
2019-03-19T09:40:30.493Z,85.60
2019-03-19T09:42:58.922Z,84.18
2019-03-19T09:45:27.365Z,84.09
2019-03-19T09:47:55.813Z,84.45
2019-03-19T09:50:26.408Z,82.70
2019-03-19T09:52:55.004Z,82.28
2019-03-19T09:55:23.614Z,81.15
2019-03-19T09:57:52.121Z,81.17
2019-03-19T10:00:24.003Z,80.44
2019-03-19T10:02:52.499Z,80.40
2019-03-19T10:05:21.002Z,80.65
2019-03-19T10:07:49.440Z,79.90
2019-03-19T10:10:20.224Z,80.03
2019-03-19T10:12:48.781Z,79.93
2019-03-19T10:15:17.963Z,80.41
2019-03-19T10:17:46.482Z,81.96
2019-03-19T10:20:20.783Z,81.25
2019-03-19T10:22:49.279Z,81.52
2019-03-19T10:25:17.720Z,80.57
2019-03-19T10:27:46.272Z,82.54
2019-03-19T10:30:22.301Z,81.78
2019-03-19T10:32:50.911Z,80.23
2019-03-19T10:35:19.438Z,76.66
2019-03-19T10:37:47.942Z,77.85
2019-03-19T10:40:21.079Z,78.23
2019-03-19T10:42:49.663Z,78.91
2019-03-19T10:45:20.405Z,79.12
2019-03-19T10:47:48.854Z,76.59
2019-03-19T10:50:21.643Z,76.20
2019-03-19T10:52:50.309Z,77.76
2019-03-19T10:55:18.957Z,75.65
2019-03-19T10:57:47.471Z,75.03
2019-03-19T11:00:26.193Z,76.33
2019-03-19T11:02:54.866Z,75.27
2019-03-19T11:05:26.862Z,71.78
2019-03-19T11:07:55.487Z,72.00
2019-03-19T11:10:25.010Z,71.89
2019-03-19T11:12:53.476Z,72.93
2019-03-19T11:15:23.567Z,73.56
2019-03-19T11:17:52.081Z,71.91
2019-03-19T11:20:21.211Z,71.74
2019-03-19T11:22:49.782Z,72.76
2019-03-19T11:25:30.803Z,71.51
2019-03-19T11:27:59.251Z,71.41
2019-03-19T11:30:31.327Z,71.04
2019-03-19T11:32:59.935Z,72.78
2019-03-19T11:35:28.574Z,71.79
2019-03-19T11:37:56.998Z,71.72
2019-03-19T11:40:26.276Z,72.05
2019-03-19T11:42:54.910Z,71.00
2019-03-19T11:45:24.698Z,70.50
2019-03-19T11:47:53.149Z,69.29
2019-03-19T11:50:26.001Z,71.54
2019-03-19T11:52:54.520Z,68.95
2019-03-19T11:55:23.064Z,69.92
2019-03-19T11:57:52.015Z,69.71
2019-03-19T12:00:33.077Z,70.62
2019-03-19T12:03:12.182Z,71.61
2019-03-19T12:05:31.807Z,70.84
2019-03-19T12:08:01.030Z,71.26
2019-03-19T12:10:29.467Z,70.38
2019-03-19T12:12:57.903Z,70.51
2019-03-19T12:15:26.340Z,69.95
2019-03-19T12:17:54.797Z,69.65
2019-03-19T12:20:23.279Z,69.11
2019-03-19T12:22:51.739Z,69.34
2019-03-19T12:25:20.147Z,71.00
2019-03-19T12:27:48.596Z,69.33
2019-03-19T12:30:24.765Z,69.32
2019-03-19T12:32:52.217Z,70.43
2019-03-19T12:35:21.802Z,69.16
2019-03-19T12:37:50.234Z,69.31
2019-03-19T12:40:36.214Z,69.12
2019-03-19T12:42:55.865Z,69.50
2019-03-19T12:45:24.998Z,70.19
2019-03-19T12:47:53.432Z,68.83
2019-03-19T12:50:24.110Z,71.12
2019-03-19T12:52:52.602Z,70.08
2019-03-19T12:55:21.126Z,71.07
2019-03-19T12:57:49.832Z,70.74
2019-03-19T13:00:33.979Z,70.55
2019-03-19T13:02:56.102Z,71.27
2019-03-19T13:05:24.600Z,73.26
2019-03-19T13:07:53.041Z,70.88
2019-03-19T13:10:25.246Z,71.78
2019-03-19T13:12:53.815Z,72.95
2019-03-19T13:15:22.480Z,72.35
2019-03-19T13:17:50.966Z,72.36
2019-03-19T13:20:23.314Z,72.27
2019-03-19T13:22:51.815Z,72.75
2019-03-19T13:25:24.057Z,72.28
2019-03-19T13:27:52.598Z,71.07
2019-03-19T13:30:22.736Z,72.80
2019-03-19T13:32:51.189Z,72.17
2019-03-19T13:35:19.640Z,72.59
2019-03-19T13:37:48.061Z,72.66
2019-03-19T13:40:20.406Z,72.39
2019-03-19T13:42:49.007Z,71.32
2019-03-19T13:45:20.490Z,68.26
2019-03-19T13:47:48.954Z,67.48
2019-03-19T13:50:21.517Z,67.54
2019-03-19T13:52:50.074Z,67.94
2019-03-19T13:55:20.058Z,67.95
2019-03-19T13:57:48.499Z,68.51
2019-03-19T14:00:19.700Z,67.78
2019-03-19T14:02:48.125Z,68.15
2019-03-19T14:05:17.542Z,68.62
2019-03-19T14:07:46.106Z,68.72
2019-03-19T14:10:19.969Z,67.75
2019-03-19T14:12:48.777Z,67.30
2019-03-19T14:15:22.123Z,67.28
2019-03-19T14:17:50.721Z,68.21
2019-03-19T14:20:19.147Z,68.73
2019-03-19T14:22:47.670Z,70.07
2019-03-19T14:25:16.855Z,68.33
2019-03-19T14:27:45.458Z,67.00
2019-03-19T14:30:22.198Z,67.23
2019-03-19T14:32:50.699Z,66.64
2019-03-19T14:35:19.207Z,66.29
2019-03-19T14:37:48.340Z,67.87
2019-03-19T14:40:22.485Z,67.81
2019-03-19T14:42:50.999Z,67.76
2019-03-19T14:45:21.648Z,67.89
2019-03-19T14:47:50.209Z,68.76
2019-03-19T14:50:24.315Z,67.98
2019-03-19T14:52:52.844Z,68.20
2019-03-19T14:55:21.378Z,68.80
2019-03-19T14:57:51.105Z,68.98
2019-03-19T15:00:25.740Z,68.09
2019-03-19T15:02:54.374Z,68.81
2019-03-19T15:05:22.905Z,69.04
2019-03-19T15:07:51.418Z,67.89
2019-03-19T15:10:21.223Z,68.10
2019-03-19T15:12:49.815Z,68.34
2019-03-19T15:15:19.490Z,68.31
2019-03-19T15:17:47.994Z,68.55
2019-03-19T15:20:27.254Z,69.27
2019-03-19T15:22:55.749Z,68.68
2019-03-19T15:25:24.384Z,68.12
2019-03-19T15:27:53.395Z,68.84
2019-03-19T15:30:21.893Z,68.15
2019-03-19T15:32:50.370Z,67.96
2019-03-19T15:35:22.440Z,67.57
2019-03-19T15:37:50.889Z,67.39
2019-03-19T15:40:22.961Z,68.67
2019-03-19T15:42:51.379Z,66.23
2019-03-19T15:45:21.168Z,66.24
2019-03-19T15:47:49.702Z,66.85
2019-03-19T15:50:18.399Z,66.86
2019-03-19T15:52:47.052Z,67.47
2019-03-19T15:55:15.958Z,66.94
2019-03-19T15:57:44.408Z,67.82
2019-03-19T16:00:18.763Z,67.20
2019-03-19T16:02:47.528Z,68.15
2019-03-19T16:05:16.534Z,68.92
2019-03-19T16:07:45.064Z,68.18
2019-03-19T16:10:15.316Z,67.33
2019-03-19T16:12:44.332Z,67.88
2019-03-19T16:15:23.790Z,67.76
2019-03-19T16:17:52.321Z,68.06
2019-03-19T16:20:22.230Z,68.00
2019-03-19T16:22:50.711Z,68.27
2019-03-19T16:25:19.227Z,66.96
2019-03-19T16:27:47.677Z,66.64
2019-03-19T16:30:17.323Z,67.35
2019-03-19T16:32:45.818Z,67.40
2019-03-19T16:35:14.589Z,67.97
2019-03-19T16:37:43.033Z,68.42
2019-03-19T16:40:23.032Z,68.99
2019-03-19T16:42:51.543Z,69.98
2019-03-19T16:45:20.073Z,70.24
2019-03-19T16:47:48.671Z,70.00
2019-03-19T16:50:21.209Z,69.92
2019-03-19T16:52:49.707Z,70.49
2019-03-19T16:55:19.831Z,71.77
2019-03-19T16:57:48.276Z,71.08
2019-03-19T17:00:21.933Z,71.62
2019-03-19T17:02:50.439Z,71.40
2019-03-19T17:05:19.162Z,71.60
2019-03-19T17:07:47.527Z,71.80
2019-03-19T17:10:21.202Z,72.68
2019-03-19T17:12:49.790Z,72.22
2019-03-19T17:15:18.330Z,72.81
2019-03-19T17:17:47.692Z,73.36
2019-03-19T17:20:17.714Z,73.31
2019-03-19T17:22:46.231Z,73.31
2019-03-19T17:25:27.983Z,73.21
2019-03-19T17:27:56.427Z,73.73
2019-03-19T17:30:33.250Z,73.69
2019-03-19T17:33:01.663Z,74.46
2019-03-19T17:35:30.113Z,74.36
2019-03-19T17:37:58.559Z,74.32
2019-03-19T17:40:27.002Z,74.10
2019-03-19T17:42:55.432Z,74.42
2019-03-19T17:45:24.034Z,74.78
2019-03-19T17:47:52.549Z,74.68
2019-03-19T17:50:32.360Z,75.51
2019-03-19T17:53:00.777Z,74.60
2019-03-19T17:55:29.228Z,72.67
2019-03-19T17:57:57.681Z,73.23
2019-03-19T18:00:39.972Z,73.24
2019-03-19T18:03:08.515Z,73.20
2019-03-19T18:05:37.122Z,73.38
2019-03-19T18:08:06.328Z,73.05
2019-03-19T18:10:34.803Z,73.88
2019-03-19T18:13:03.291Z,74.61
2019-03-19T18:15:31.773Z,75.40
2019-03-19T18:18:00.222Z,73.71
2019-03-19T18:20:28.837Z,73.90
2019-03-19T18:22:57.311Z,74.33
2019-03-19T18:25:25.823Z,74.63
2019-03-19T18:27:54.288Z,74.99
2019-03-19T18:30:23.954Z,76.08
2019-03-19T18:32:52.498Z,77.42
2019-03-19T18:35:20.915Z,76.33
2019-03-19T18:37:49.461Z,76.41
2019-03-19T18:40:19.957Z,77.04
2019-03-19T18:42:48.419Z,76.85
2019-03-19T18:45:18.730Z,79.69
2019-03-19T18:47:47.217Z,79.22
2019-03-19T18:50:18.679Z,79.21
2019-03-19T18:52:47.790Z,79.48
2019-03-19T18:55:16.225Z,80.20
2019-03-19T18:57:44.674Z,79.02
2019-03-19T19:00:16.010Z,79.15
2019-03-19T19:02:49.525Z,79.85
2019-03-19T19:05:18.058Z,79.46
2019-03-19T19:07:46.514Z,79.82
2019-03-19T19:10:20.880Z,79.69
2019-03-19T19:12:48.897Z,79.42
2019-03-19T19:15:24.427Z,79.67
2019-03-19T19:17:52.907Z,79.13
2019-03-19T19:20:21.428Z,80.24
2019-03-19T19:22:50.016Z,80.92
2019-03-19T19:25:23.607Z,81.07
2019-03-19T19:27:52.140Z,80.71
2019-03-19T19:30:28.410Z,81.19
2019-03-19T19:33:02.137Z,81.07
2019-03-19T19:35:27.000Z,81.36
2019-03-19T19:37:56.207Z,82.75
2019-03-19T19:40:26.226Z,82.36
2019-03-19T19:42:55.410Z,82.66
2019-03-19T19:45:24.051Z,83.52
2019-03-19T19:47:52.553Z,82.97
2019-03-19T19:50:22.136Z,82.24
2019-03-19T19:52:50.584Z,82.62
2019-03-19T19:55:19.065Z,82.85
2019-03-19T19:57:47.670Z,82.71
2019-03-19T20:00:18.533Z,82.60
2019-03-19T20:02:47.255Z,83.88
2019-03-19T20:05:16.404Z,83.71
2019-03-19T20:07:44.851Z,84.11
2019-03-19T20:10:24.266Z,84.74
2019-03-19T20:12:52.883Z,83.72
2019-03-19T20:15:21.365Z,83.92
2019-03-19T20:17:49.788Z,84.04
2019-03-19T20:20:20.286Z,84.09
2019-03-19T20:22:49.256Z,84.22
2019-03-19T20:25:18.174Z,85.04
2019-03-19T20:27:47.489Z,84.95
2019-03-19T20:30:20.211Z,84.74
2019-03-19T20:32:52.798Z,84.69
2019-03-19T20:35:21.325Z,84.65
2019-03-19T20:37:49.859Z,85.21
2019-03-19T20:40:18.428Z,85.60
2019-03-19T20:42:46.934Z,85.06
2019-03-19T20:45:20.074Z,85.58
2019-03-19T20:47:48.543Z,85.57
2019-03-19T20:53:16.673Z,85.57
2019-03-19T20:55:45.113Z,85.69
2019-03-19T20:58:13.664Z,85.38
2019-03-19T21:00:42.082Z,85.35
2019-03-19T21:03:10.551Z,85.80
2019-03-19T21:05:39.097Z,85.38
2019-03-19T21:08:07.735Z,85.46
2019-03-19T21:10:37.350Z,85.71
2019-03-19T21:13:05.842Z,87.15
2019-03-19T21:15:34.304Z,86.43
2019-03-19T21:18:02.946Z,86.18
2019-03-19T21:20:31.676Z,86.40
2019-03-19T21:23:00.346Z,86.76
2019-03-19T21:25:28.885Z,88.57
2019-03-19T21:27:57.389Z,88.59
2019-03-19T21:30:25.894Z,88.28
2019-03-19T21:32:54.352Z,88.42
2019-03-19T21:35:23.835Z,88.16
2019-03-19T21:37:52.448Z,88.69
2019-03-19T21:40:21.438Z,89.62
2019-03-19T21:42:50.385Z,89.76
2019-03-19T21:45:20.913Z,89.46
2019-03-19T21:47:49.431Z,89.73
2019-03-19T21:50:23.027Z,89.20
2019-03-19T21:52:51.795Z,89.83
2019-03-19T21:55:20.293Z,90.54
2019-03-19T21:57:51.584Z,90.13
2019-03-19T22:00:24.542Z,89.96
2019-03-19T22:02:53.080Z,89.89
2019-03-19T22:05:21.726Z,89.52
2019-03-19T22:07:50.163Z,89.51
2019-03-19T22:10:20.263Z,89.78
2019-03-19T22:12:49.801Z,89.49
2019-03-19T22:15:24.672Z,89.77
2019-03-19T22:17:53.365Z,89.85
2019-03-19T22:20:22.150Z,90.53
2019-03-19T22:22:50.618Z,90.61
2019-03-19T22:25:19.461Z,91.19
2019-03-19T22:27:49.736Z,91.38
2019-03-19T22:30:20.217Z,91.64
2019-03-19T22:32:48.693Z,91.80
2019-03-19T22:35:21.333Z,91.93
2019-03-19T22:37:49.798Z,92.27
2019-03-19T22:40:18.937Z,91.86
2019-03-19T22:42:47.563Z,91.55
2019-03-19T22:45:16.873Z,93.05
2019-03-19T22:47:45.351Z,93.35
2019-03-19T22:50:15.131Z,92.92
2019-03-19T22:52:43.738Z,92.82
2019-03-19T22:55:13.478Z,92.67
2019-03-19T22:57:42.098Z,92.97
2019-03-19T23:00:37.170Z,93.54
2019-03-19T23:03:07.133Z,93.50
2019-03-19T23:05:36.531Z,93.94
2019-03-19T23:08:05.339Z,94.16
2019-03-19T23:10:34.473Z,94.75
2019-03-19T23:13:03.004Z,94.84
2019-03-19T23:15:31.420Z,94.75
2019-03-19T23:18:00.211Z,94.88
2019-03-19T23:20:29.507Z,94.79
2019-03-19T23:22:58.007Z,94.98
2019-03-19T23:25:26.450Z,94.97
2019-03-19T23:27:54.871Z,95.31
2019-03-19T23:30:24.845Z,95.68
2019-03-19T23:32:53.792Z,95.10
2019-03-19T23:35:22.326Z,95.18
2019-03-19T23:37:50.799Z,95.48
2019-03-19T23:40:20.854Z,95.98
2019-03-19T23:42:49.422Z,95.74
2019-03-19T23:45:17.964Z,96.37
2019-03-19T23:47:46.386Z,96.35
2019-03-19T23:50:19.894Z,96.93
2019-03-19T23:52:49.114Z,97.31
2019-03-19T23:55:17.625Z,98.23
2019-03-19T23:57:46.078Z,98.46
